Sexton City, Texas
Current Conditions -  °F | °C
As of 6:15 PM on Tuesday 25 Nov 2014 (Local Time) from KRFI Reporting Station
Clear Clear  
Wind Chill: 47°   Ceiling: Unl
Heat Index: 47°   Visibility: 10mi
Dew Point: 36°   Wind: 0mph
Humidity: 65%   Direction: NA
Pressure: 30.19"   Gusts: NA
Location:  32.2818°N, 94.951°W
Report Text: KRFI 260015Z AUTO 00000KT 10SM CLR 09/02 A3019 RMK AO2 T00850023
Loading
Personal Weather Stations






























Interactive Weather Map New forecast layout! Learn more

10-Day Weather Forecast

Advertisements
Track Severe Weather on mobile